createdAt,value
2018-04-07T00:01:17.652Z,68.5
2018-04-07T00:06:17.715Z,67.6
2018-04-07T00:11:17.904Z,67.8
2018-04-07T00:16:17.943Z,68
2018-04-07T00:21:17.690Z,67.4
2018-04-07T00:26:17.890Z,66.9
2018-04-07T00:31:19.609Z,66.8
2018-04-07T00:36:19.445Z,67.5
2018-04-07T00:41:31.929Z,67.4
2018-04-07T00:46:31.883Z,66.8
2018-04-07T00:51:31.791Z,66
2018-04-07T00:56:31.653Z,64.3
2018-04-07T01:01:31.644Z,63.8
2018-04-07T01:06:31.645Z,64.5
2018-04-07T01:11:31.658Z,64.1
2018-04-07T01:16:31.850Z,63.6
2018-04-07T01:21:31.776Z,64
2018-04-07T01:26:31.821Z,64.9
2018-04-07T01:31:31.852Z,65.2
2018-04-07T01:36:31.877Z,65.8
2018-04-07T01:41:32.099Z,65
2018-04-07T01:46:32.071Z,65.3
2018-04-07T01:51:44.282Z,65.8
2018-04-07T01:56:44.019Z,65.3
2018-04-07T02:01:44.012Z,65.5
2018-04-07T02:06:44.002Z,64.8
2018-04-07T02:11:44.094Z,64.8
2018-04-07T02:16:44.029Z,64.3
2018-04-07T02:21:44.049Z,63.4
2018-04-07T02:26:44.464Z,63.2
2018-04-07T02:31:44.314Z,63
2018-04-07T02:36:56.565Z,62.3
2018-04-07T02:41:56.498Z,61.4
2018-04-07T02:46:56.501Z,61
2018-04-07T02:51:56.305Z,60.5
2018-04-07T02:56:56.494Z,59.7
2018-04-07T03:01:56.312Z,59.6
2018-04-07T03:06:56.409Z,59.8
2018-04-07T03:11:56.467Z,60
2018-04-07T03:16:56.487Z,60.2
2018-04-07T03:21:56.401Z,60.7
2018-04-07T03:26:56.283Z,60.5
2018-04-07T03:31:56.480Z,60.8
2018-04-07T03:37:01.082Z,60.4
2018-04-07T03:42:01.982Z,60.7
2018-04-07T03:47:08.444Z,61.1
2018-04-07T03:52:08.151Z,61.1
2018-04-07T03:57:08.343Z,60.7
2018-04-07T04:02:08.175Z,60.7
2018-04-07T04:07:08.385Z,61.5
2018-04-07T04:12:08.193Z,61.4
2018-04-07T04:17:08.202Z,61.7
2018-04-07T04:22:08.180Z,62.2
2018-04-07T04:27:08.137Z,62.3
2018-04-07T04:32:21.653Z,62.4
2018-04-07T04:37:21.612Z,62.5
2018-04-07T04:42:21.531Z,62.6
2018-04-07T04:47:21.578Z,62.4
2018-04-07T04:52:21.366Z,62.3
2018-04-07T04:57:21.371Z,62
2018-04-07T05:02:21.393Z,62.1
2018-04-07T05:07:21.367Z,62
2018-04-07T05:12:21.393Z,61.9
2018-04-07T05:17:21.397Z,61.2
2018-04-07T05:22:21.418Z,61.7
2018-04-07T05:27:21.398Z,60.8
2018-04-07T05:32:21.960Z,60.9
2018-04-07T05:37:21.903Z,60.2
2018-04-07T05:42:34.354Z,59.5
2018-04-07T05:47:34.086Z,59.4
2018-04-07T05:52:34.088Z,59.2
2018-04-07T05:57:34.397Z,58.8
2018-04-07T06:02:34.248Z,58.3
2018-04-07T06:07:34.290Z,58.3
2018-04-07T06:12:34.232Z,57.6
2018-04-07T06:17:36.435Z,57.3
2018-04-07T06:22:36.175Z,55.8
2018-04-07T06:27:52.987Z,55.8
2018-04-07T06:32:51.968Z,55.6
2018-04-07T06:37:52.891Z,55.9
2018-04-07T06:42:50.128Z,54.9
2018-04-07T06:47:50.146Z,54.3
2018-04-07T06:52:59.766Z,54.9
2018-04-07T06:57:59.506Z,54.9
2018-04-07T07:02:59.522Z,55.6
2018-04-07T07:07:59.540Z,55.6
2018-04-07T07:12:59.741Z,56.4
2018-04-07T07:17:59.738Z,55
2018-04-07T07:22:59.934Z,55.6
2018-04-07T07:28:00.006Z,56.3
2018-04-07T07:33:00.218Z,55.3
2018-04-07T07:38:12.124Z,54.1
2018-04-07T07:43:11.935Z,51.8
2018-04-07T07:48:11.844Z,51.4
2018-04-07T07:53:11.882Z,52.9
2018-04-07T07:58:11.852Z,51.5
2018-04-07T08:03:11.880Z,51.3
2018-04-07T08:08:11.868Z,51.1
2018-04-07T08:13:13.233Z,51.6
2018-04-07T08:18:12.965Z,50.6
2018-04-07T08:23:25.429Z,50.4
2018-04-07T08:28:25.168Z,50.2
2018-04-07T08:33:25.171Z,50.3
2018-04-07T08:38:25.148Z,49.9
2018-04-07T08:43:25.164Z,49.9
2018-04-07T08:48:25.164Z,50.2
2018-04-07T08:53:25.309Z,49.7
2018-04-07T08:58:25.207Z,49.5
2018-04-07T09:03:25.186Z,50.9
2018-04-07T09:08:37.323Z,48.9
2018-04-07T09:13:37.043Z,48.3
2018-04-07T09:18:37.296Z,47.4
2018-04-07T09:23:37.061Z,48.1
2018-04-07T09:28:37.042Z,47.8
2018-04-07T09:33:37.044Z,47.3
2018-04-07T09:38:37.076Z,46.8
2018-04-07T09:43:38.552Z,48.1
2018-04-07T09:48:38.113Z,47.5
2018-04-07T09:53:49.900Z,46.4
2018-04-07T09:58:49.650Z,46.8
2018-04-07T10:03:49.627Z,46.6
2018-04-07T10:08:49.629Z,45.8
2018-04-07T10:13:49.644Z,45.7
2018-04-07T10:18:49.649Z,45.7
2018-04-07T10:23:49.786Z,45.2
2018-04-07T10:28:51.849Z,44.4
2018-04-07T10:33:51.694Z,45.8
2018-04-07T10:39:04.035Z,45.7
2018-04-07T10:44:03.935Z,46.7
2018-04-07T10:49:03.753Z,46.9
2018-04-07T10:54:03.768Z,45.9
2018-04-07T10:59:03.742Z,45.3
2018-04-07T11:04:03.762Z,45.5
2018-04-07T11:09:03.756Z,46.8
2018-04-07T11:14:06.176Z,47.3
2018-04-07T11:19:06.064Z,47.2
2018-04-07T11:24:19.984Z,46.8
2018-04-07T11:29:19.723Z,45.5
2018-04-07T11:34:19.852Z,44.4
2018-04-07T11:39:19.909Z,44.1
2018-04-07T11:44:19.832Z,44.9
2018-04-07T11:49:19.724Z,44.7
2018-04-07T11:54:19.935Z,44.3
2018-04-07T11:59:21.903Z,41.5
2018-04-07T12:04:21.819Z,42.6
2018-04-07T12:09:34.853Z,40
2018-04-07T12:14:34.726Z,40
2018-04-07T12:19:34.565Z,39.8
2018-04-07T12:24:34.567Z,39.6
2018-04-07T12:29:34.799Z,39.7
2018-04-07T12:34:34.584Z,39.1
2018-04-07T12:39:34.603Z,38.8
2018-04-07T12:44:34.847Z,38.5
2018-04-07T12:49:35.021Z,38.3
2018-04-07T12:54:47.239Z,38.2
2018-04-07T12:59:47.057Z,38.3
2018-04-07T13:04:47.234Z,36.9
2018-04-07T13:09:47.144Z,37.3
2018-04-07T13:14:46.922Z,36.3
2018-04-07T13:19:46.992Z,35.7
2018-04-07T13:24:46.967Z,35.9
2018-04-07T13:29:46.971Z,34.9
2018-04-07T13:34:47.097Z,35.7
2018-04-07T13:40:01.981Z,35.8
2018-04-07T13:45:01.734Z,34.9
2018-04-07T13:50:01.732Z,32.9
2018-04-07T13:55:01.882Z,31.5
2018-04-07T14:00:01.938Z,32.8
2018-04-07T14:05:01.690Z,31.2
2018-04-07T14:10:01.900Z,32.3
2018-04-07T14:15:02.522Z,31.8
2018-04-07T14:20:02.154Z,31.5
2018-04-07T14:25:14.777Z,34.2
2018-04-07T14:30:14.530Z,34.5
2018-04-07T14:35:14.642Z,36.7
2018-04-07T14:40:14.631Z,38.5
2018-04-07T14:45:14.559Z,40
2018-04-07T14:50:18.496Z,38.7
2018-04-07T14:55:18.359Z,39.3
2018-04-07T15:00:18.436Z,39.6
2018-04-07T15:05:18.295Z,38.6
2018-04-07T15:10:18.361Z,38.6
2018-04-07T15:15:18.195Z,40.2
2018-04-07T15:20:18.163Z,39.5
2018-04-07T15:25:19.833Z,40.5
2018-04-07T15:30:19.755Z,40.8
2018-04-07T15:35:32.303Z,41.1
2018-04-07T15:40:32.252Z,42
2018-04-07T15:45:32.221Z,41.9
2018-04-07T15:50:32.143Z,42.1
2018-04-07T15:55:32.050Z,42.7
2018-04-07T16:00:32.233Z,43.9
2018-04-07T16:05:32.172Z,44.1
2018-04-07T16:10:34.990Z,44.8
2018-04-07T16:15:35.292Z,45.1
2018-04-07T16:20:47.832Z,45.1
2018-04-07T16:25:44.710Z,46.1
2018-04-07T16:30:44.947Z,46.7
2018-04-07T16:35:44.996Z,47
2018-04-07T16:40:44.724Z,47.5
2018-04-07T16:45:44.742Z,47.7
2018-04-07T16:50:44.825Z,47.8
2018-04-07T16:55:44.872Z,48.1
2018-04-07T17:00:44.910Z,48.7
2018-04-07T17:05:44.848Z,49.6
2018-04-07T17:10:44.742Z,49.6
2018-04-07T17:15:44.935Z,50.1
2018-04-07T17:20:44.741Z,50.2
2018-04-07T17:25:44.879Z,50.7
2018-04-07T17:30:58.124Z,51.6
2018-04-07T17:35:57.962Z,51.2
2018-04-07T17:40:57.993Z,52.4
2018-04-07T17:45:57.873Z,52.3
2018-04-07T17:50:57.870Z,53
2018-04-07T17:55:57.885Z,53.7
2018-04-07T18:00:57.879Z,54.6
2018-04-07T18:05:58.452Z,55.4
2018-04-07T18:10:58.288Z,56.5
2018-04-07T18:16:10.754Z,57.7
2018-04-07T18:21:10.715Z,58.3
2018-04-07T18:26:11.848Z,59.3
2018-04-07T18:31:10.644Z,59.7
2018-04-07T18:36:10.679Z,60.5
2018-04-07T18:41:11.604Z,61.6
2018-04-07T18:46:11.110Z,61.8
2018-04-07T18:51:11.076Z,62.3
2018-04-07T18:56:11.117Z,62.7
2018-04-07T19:01:11.264Z,63.5
2018-04-07T19:06:11.268Z,64.1
2018-04-07T19:11:11.130Z,64
2018-04-07T19:16:12.730Z,65.3
2018-04-07T19:21:12.584Z,65.1
2018-04-07T19:26:25.912Z,66
2018-04-07T19:31:25.639Z,66.7
2018-04-07T19:36:25.639Z,66.7
2018-04-07T19:41:25.888Z,67
2018-04-07T19:46:25.878Z,67.6
2018-04-07T19:51:25.761Z,67.7
2018-04-07T19:56:25.858Z,68.4
2018-04-07T20:01:31.148Z,68.9
2018-04-07T20:06:30.881Z,69.4
2018-04-07T20:11:40.089Z,69.4
2018-04-07T20:16:57.036Z,69.9
2018-04-07T20:22:00.727Z,70.5
2018-04-07T20:26:50.833Z,70.1
2018-04-07T20:31:50.867Z,71.2
2018-04-07T20:36:53.008Z,71.4
2018-04-07T20:41:52.778Z,72.2
2018-04-07T20:46:52.765Z,72.4
2018-04-07T20:51:52.751Z,72.2
2018-04-07T20:56:52.784Z,73.1
2018-04-07T21:01:52.760Z,73.2
2018-04-07T21:06:52.750Z,74.3
2018-04-07T21:11:52.863Z,74.3
2018-04-07T21:16:52.846Z,74.8
2018-04-07T21:22:04.801Z,75
2018-04-07T21:27:04.440Z,75.7
2018-04-07T21:32:04.651Z,76.4
2018-04-07T21:37:04.642Z,76.7
2018-04-07T21:42:04.763Z,76.8
2018-04-07T21:47:04.678Z,77.1
2018-04-07T21:52:04.632Z,77.2
2018-04-07T21:57:05.305Z,77.2
2018-04-07T22:02:05.046Z,77.5
2018-04-07T22:07:17.450Z,77.5
2018-04-07T22:12:17.160Z,78
2018-04-07T22:17:17.108Z,78
2018-04-07T22:22:17.153Z,78.3
2018-04-07T22:27:20.017Z,78.8
2018-04-07T22:32:37.460Z,78.3
2018-04-07T22:37:36.137Z,78.5
2018-04-07T22:42:37.331Z,78.6
2018-04-07T22:47:37.599Z,79
2018-04-07T22:52:37.055Z,79.3
2018-04-07T22:57:38.017Z,79.7
2018-04-07T23:02:43.060Z,79.8
2018-04-07T23:07:44.032Z,79.9
2018-04-07T23:12:45.719Z,79.5
2018-04-07T23:17:43.994Z,80.8
2018-04-07T23:22:45.939Z,80.6
2018-04-07T23:27:42.933Z,80.7
2018-04-07T23:32:57.973Z,80.4
2018-04-07T23:37:53.965Z,80.7
2018-04-07T23:42:53.510Z,81.3
2018-04-07T23:47:57.069Z,80.7
2018-04-07T23:52:56.448Z,80.7
2018-04-07T23:57:57.878Z,81.1
